NCAR-RAP Real-Time Weather Data

Output produced by METARs form (23 June 2018  16:10 UTC)
found at http://weather.rap.ucar.edu/surface/
 
Conditions at: KSPG observed 23 June 2018  14:53 UTC
Temperature: 30.6°C (87°F)
Dewpoint: 22.8°C (73°F) [RH = 63%]
Pressure (altimeter): 30.02 inches Hg (1016.7 mb)
[Sea-level pressure: 1016.5 mb]
Winds: from the WNW (300 degrees) at 9 MPH (8 knots; 4.2 m/s)
Visibility: 10 or more miles (16+ km)
Ceiling: at least 12,000 feet AGL
Clouds: sky clear below 12,000 feet AGL
Present Weather: no significant weather observed at this time
KSPG 231453Z 30008KT 10SM CLR 31/23 A3002 RMK AO2 SLP165 T03060228 53006

Conditions at: KSPG observed 23 June 2018  13:53 UTC
Temperature: 30.0°C (86°F)
Dewpoint: 23.9°C (75°F) [RH = 70%]
Pressure (altimeter): 30.01 inches Hg (1016.3 mb)
[Sea-level pressure: 1016.1 mb]
Winds: from the W (260 degrees) at 10 MPH (9 knots; 4.7 m/s)
Visibility: 10 or more miles (16+ km)
Ceiling: at least 12,000 feet AGL
Clouds: sky clear below 12,000 feet AGL
Present Weather: no significant weather observed at this time
KSPG 231353Z 26009KT 10SM CLR 30/24 A3001 RMK AO2 SLP161 T03000239

Conditions at: KSPG observed 23 June 2018  12:53 UTC
Temperature: 29.4°C (85°F)
Dewpoint: 23.9°C (75°F) [RH = 72%]
Pressure (altimeter): 30.00 inches Hg (1016.0 mb)
[Sea-level pressure: 1016.0 mb]
Winds: from the WSW (250 degrees) at 10 MPH (9 knots; 4.7 m/s)
Visibility: 10 or more miles (16+ km)
Ceiling: at least 12,000 feet AGL
Clouds: sky clear below 12,000 feet AGL
Present Weather: no significant weather observed at this time
KSPG 231253Z 25009KT 10SM CLR 29/24 A3000 RMK AO2 SLP160 T02940239

Conditions at: KSPG observed 23 June 2018  11:53 UTC
Temperature: 28.9°C (84°F)
Dewpoint: 24.4°C (76°F) [RH = 77%]
Pressure (altimeter): 30.00 inches Hg (1016.0 mb)
[Sea-level pressure: 1015.9 mb]
Winds: from the W (270 degrees) at 7 MPH (6 knots; 3.1 m/s)
Visibility: 10 or more miles (16+ km)
Ceiling: at least 12,000 feet AGL
Clouds: sky clear below 12,000 feet AGL
Present Weather: no significant weather observed at this time
KSPG 231153Z 27006KT 10SM CLR 29/24 A3000 RMK AO2 SLP159 T02890244 10294 20283 53016

Conditions at: KSPG observed 23 June 2018  10:53 UTC
Temperature: 28.3°C (83°F)
Dewpoint: 24.4°C (76°F) [RH = 79%]
Pressure (altimeter): 29.98 inches Hg (1015.3 mb)
[Sea-level pressure: 1015.1 mb]
Winds: from the W (270 degrees) at 3 MPH (3 knots; 1.6 m/s)
Visibility: 10 or more miles (16+ km)
Ceiling: at least 12,000 feet AGL
Clouds: sky clear below 12,000 feet AGL
Present Weather: no significant weather observed at this time
KSPG 231053Z 27003KT 10SM CLR 28/24 A2998 RMK AO2 SLP151 T02830244

Conditions at: KSPG observed 23 June 2018  09:53 UTC
Temperature: 28.3°C (83°F)
Dewpoint: 24.4°C (76°F) [RH = 79%]
Pressure (altimeter): 29.97 inches Hg (1015.0 mb)
[Sea-level pressure: 1014.6 mb]
Winds: from the W (260 degrees) at 3 MPH (3 knots; 1.6 m/s)
Visibility: 10 or more miles (16+ km)
Ceiling: at least 12,000 feet AGL
Clouds: sky clear below 12,000 feet AGL
Present Weather: automated observation with no human augmentation;
there may or may not be significant weather present at this time
KSPG 230953Z AUTO 26003KT 10SM CLR 28/24 A2997 RMK AO2 SLP146 T02830244

Conditions at: KSPG observed 23 June 2018  08:53 UTC
Temperature: 28.3°C (83°F)
Dewpoint: 25.0°C (77°F) [RH = 82%]
Pressure (altimeter): 29.95 inches Hg (1014.3 mb)
[Sea-level pressure: 1014.3 mb]
Winds: from the W (260 degrees) at 5 MPH (4 knots; 2.1 m/s)
Visibility: 10 or more miles (16+ km)
Ceiling: at least 12,000 feet AGL
Clouds: few clouds at 2500 feet AGL
Present Weather: automated observation with no human augmentation;
there may or may not be significant weather present at this time
KSPG 230853Z AUTO 26004KT 10SM FEW025 28/25 A2995 RMK AO2 SLP143 T02830250 56006

Conditions at: KSPG observed 23 June 2018  07:53 UTC
Temperature: 28.9°C (84°F)
Dewpoint: 25.0°C (77°F) [RH = 80%]
Pressure (altimeter): 29.96 inches Hg (1014.6 mb)
[Sea-level pressure: 1014.4 mb]
Winds: from the WSW (250 degrees) at 6 MPH (5 knots; 2.6 m/s)
Visibility: 10 or more miles (16+ km)
Ceiling: at least 12,000 feet AGL
Clouds: few clouds at 2300 feet AGL
Present Weather: automated observation with no human augmentation;
there may or may not be significant weather present at this time
KSPG 230753Z AUTO 25005KT 10SM FEW023 29/25 A2996 RMK AO2 SLP144 T02890250

Conditions at: KSPG observed 23 June 2018  06:53 UTC
Temperature: 29.4°C (85°F)
Dewpoint: 25.0°C (77°F) [RH = 77%]
Pressure (altimeter): 29.96 inches Hg (1014.6 mb)
[Sea-level pressure: 1014.4 mb]
Winds: from the W (270 degrees) at 6 MPH (5 knots; 2.6 m/s)
Visibility: 10 or more miles (16+ km)
Ceiling: at least 12,000 feet AGL
Clouds: sky clear below 12,000 feet AGL
Present Weather: automated observation with no human augmentation;
there may or may not be significant weather present at this time
KSPG 230653Z AUTO 27005KT 10SM CLR 29/25 A2996 RMK AO2 SLP144 T02940250

Conditions at: KSPG observed 23 June 2018  05:53 UTC
Temperature: 29.4°C (85°F)
Dewpoint: 25.0°C (77°F) [RH = 77%]
Pressure (altimeter): 29.97 inches Hg (1015.0 mb)
[Sea-level pressure: 1014.9 mb]
Winds: from the W (260 degrees) at 6 MPH (5 knots; 2.6 m/s)
Visibility: 10 or more miles (16+ km)
Ceiling: at least 12,000 feet AGL
Clouds: sky clear below 12,000 feet AGL
Present Weather: automated observation with no human augmentation;
there may or may not be significant weather present at this time
KSPG 230553Z AUTO 26005KT 10SM CLR 29/25 A2997 RMK AO2 SLP149 T02940250 10300 20294 58003

Conditions at: KSPG observed 23 June 2018  04:53 UTC
Temperature: 29.4°C (85°F)
Dewpoint: 25.6°C (78°F) [RH = 80%]
Pressure (altimeter): 29.98 inches Hg (1015.3 mb)
[Sea-level pressure: 1015.2 mb]
Winds: from the WNW (290 degrees) at 6 MPH (5 knots; 2.6 m/s)
Visibility: 10 or more miles (16+ km)
Ceiling: at least 12,000 feet AGL
Clouds: few clouds at 2300 feet AGL
scattered clouds at 3300 feet AGL
Present Weather: automated observation with no human augmentation;
there may or may not be significant weather present at this time
KSPG 230453Z AUTO 29005KT 10SM FEW023 SCT033 29/26 A2998 RMK AO2 SLP152 T02940256 403220283

Conditions at: KSPG observed 23 June 2018  03:53 UTC
Temperature: 29.4°C (85°F)
Dewpoint: 25.6°C (78°F) [RH = 80%]
Pressure (altimeter): 29.98 inches Hg (1015.3 mb)
[Sea-level pressure: 1015.1 mb]
Winds: from the WNW (290 degrees) at 6 MPH (5 knots; 2.6 m/s)
Visibility: 10 or more miles (16+ km)
Ceiling: at least 12,000 feet AGL
Clouds: sky clear below 12,000 feet AGL
Present Weather: automated observation with no human augmentation;
there may or may not be significant weather present at this time
KSPG 230353Z AUTO 29005KT 10SM CLR 29/26 A2998 RMK AO2 SLP151 T02940256

Conditions at: KSPG observed 23 June 2018  02:53 UTC
Temperature: 29.4°C (85°F)
Dewpoint: 25.0°C (77°F) [RH = 77%]
Pressure (altimeter): 29.98 inches Hg (1015.3 mb)
[Sea-level pressure: 1015.2 mb]
Winds: from the WSW (250 degrees) at 3 MPH (3 knots; 1.6 m/s)
Visibility: 10 or more miles (16+ km)
Ceiling: at least 12,000 feet AGL
Clouds: sky clear below 12,000 feet AGL
Present Weather: automated observation with no human augmentation;
there may or may not be significant weather present at this time
KSPG 230253Z AUTO 25003KT 10SM CLR 29/25 A2998 RMK AO2 SLP152 T02940250 53016

Conditions at: KSPG observed 23 June 2018  01:53 UTC
Temperature: 29.4°C (85°F)
Dewpoint: 25.0°C (77°F) [RH = 77%]
Pressure (altimeter): 29.97 inches Hg (1015.0 mb)
[Sea-level pressure: 1014.7 mb]
Winds: from the NW (310 degrees) at 5 MPH (4 knots; 2.1 m/s)
Visibility: 10 or more miles (16+ km)
Ceiling: at least 12,000 feet AGL
Clouds: sky clear below 12,000 feet AGL
Present Weather: automated observation with no human augmentation;
there may or may not be significant weather present at this time
KSPG 230153Z AUTO 31004KT 10SM CLR 29/25 A2997 RMK AO2 SLP147 T02940250

Conditions at: KSPG observed 23 June 2018  00:53 UTC
Temperature: 30.0°C (86°F)
Dewpoint: 25.0°C (77°F) [RH = 75%]
Pressure (altimeter): 29.94 inches Hg (1014.0 mb)
[Sea-level pressure: 1013.9 mb]
Winds: from the W (270 degrees) at 8 MPH (7 knots; 3.6 m/s)
Visibility: 10 or more miles (16+ km)
Ceiling: at least 12,000 feet AGL
Clouds: sky clear below 12,000 feet AGL
Present Weather: automated observation with no human augmentation;
there may or may not be significant weather present at this time
KSPG 230053Z AUTO 27007KT 10SM CLR 30/25 A2994 RMK AO2 SLP139 T03000250

Conditions at: KSPG observed 22 June 2018  23:53 UTC
Temperature: 30.0°C (86°F)
Dewpoint: 25.0°C (77°F) [RH = 75%]
Pressure (altimeter): 29.93 inches Hg (1013.6 mb)
[Sea-level pressure: 1013.6 mb]
Winds: from the W (280 degrees) at 9 MPH (8 knots; 4.2 m/s)
Visibility: 10 or more miles (16+ km)
Ceiling: at least 12,000 feet AGL
Clouds: few clouds at 2400 feet AGL
Present Weather: no significant weather observed at this time
KSPG 222353Z 28008KT 10SM FEW024 30/25 A2993 RMK AO2 SLP136 T03000250 10322 20300 55001

Conditions at: KSPG observed 22 June 2018  22:53 UTC
Temperature: 30.6°C (87°F)
Dewpoint: 24.4°C (76°F) [RH = 70%]
Pressure (altimeter): 29.93 inches Hg (1013.6 mb)
[Sea-level pressure: 1013.4 mb]
Winds: from the WNW (290 degrees) at 10 MPH (9 knots; 4.7 m/s)
Visibility: 10 or more miles (16+ km)
Ceiling: at least 12,000 feet AGL
Clouds: few clouds at 3100 feet AGL
Present Weather: no significant weather observed at this time
KSPG 222253Z 29009KT 10SM FEW031 31/24 A2993 RMK AO2 SLP134 T03060244

Conditions at: KSPG observed 22 June 2018  21:53 UTC
Temperature: 31.1°C (88°F)
Dewpoint: 23.9°C (75°F) [RH = 66%]
Pressure (altimeter): 29.93 inches Hg (1013.6 mb)
[Sea-level pressure: 1013.5 mb]
Winds: from the WNW (300 degrees) at 10 MPH (9 knots; 4.7 m/s)
Visibility: 10 or more miles (16+ km)
Ceiling: at least 12,000 feet AGL
Clouds: few clouds at 3800 feet AGL
Present Weather: no significant weather observed at this time
KSPG 222153Z 30009KT 10SM FEW038 31/24 A2993 RMK AO2 SLP135 T03110239

Conditions at: KSPG observed 22 June 2018  20:53 UTC
Temperature: 31.1°C (88°F)
Dewpoint: 24.4°C (76°F) [RH = 68%]
Pressure (altimeter): 29.94 inches Hg (1014.0 mb)
[Sea-level pressure: 1013.7 mb]
Winds: from the W (280 degrees) at 13 MPH (11 knots; 5.7 m/s)
Visibility: 10 or more miles (16+ km)
Ceiling: at least 12,000 feet AGL
Clouds: scattered clouds at 3300 feet AGL
Present Weather: no significant weather observed at this time
KSPG 222053Z 28011KT 10SM SCT033 31/24 A2994 RMK AO2 SLP137 T03110244 57012

Conditions at: KSPG observed 22 June 2018  19:53 UTC
Temperature: 31.1°C (88°F)
Dewpoint: 25.0°C (77°F) [RH = 70%]
Pressure (altimeter): 29.95 inches Hg (1014.3 mb)
[Sea-level pressure: 1014.1 mb]
Winds: from the WNW (300 degrees) at 10 MPH (9 knots; 4.7 m/s)
gusting to 20 MPH (17 knots; 8.8 m/s)
Visibility: 10 or more miles (16+ km)
Ceiling: 3300 feet AGL
Clouds: broken clouds at 3300 feet AGL
broken clouds at 4300 feet AGL
Present Weather: no significant weather observed at this time
KSPG 221953Z 30009G17KT 10SM BKN033 BKN043 31/25 A2995 RMK AO2 SLP141 T03110250

Conditions at: KSPG observed 22 June 2018  18:53 UTC
Temperature: 31.7°C (89°F)
Dewpoint: 24.4°C (76°F) [RH = 65%]
Pressure (altimeter): 29.96 inches Hg (1014.6 mb)
[Sea-level pressure: 1014.4 mb]
Winds: from the WNW (290 degrees) at 8 MPH (7 knots; 3.6 m/s)
Visibility: 10 or more miles (16+ km)
Ceiling: at least 12,000 feet AGL
Clouds: few clouds at 3700 feet AGL
Present Weather: no significant weather observed at this time
KSPG 221853Z 29007KT 10SM FEW037 32/24 A2996 RMK AO2 SLP144 T03170244

Conditions at: KSPG observed 22 June 2018  17:53 UTC
Temperature: 31.7°C (89°F)
Dewpoint: 23.9°C (75°F) [RH = 63%]
Pressure (altimeter): 29.97 inches Hg (1015.0 mb)
[Sea-level pressure: 1014.8 mb]
Winds: from the W (260 degrees) at 15 MPH (13 knots; 6.8 m/s)
gusting to 21 MPH (18 knots; 9.4 m/s)
Visibility: 10 or more miles (16+ km)
Ceiling: at least 12,000 feet AGL
Clouds: scattered clouds at 3900 feet AGL
Present Weather: no significant weather observed at this time
KSPG 221753Z 26013G18KT 10SM SCT039 32/24 A2997 RMK AO2 SLP148 T03170239 10317 20289 58005

Conditions at: KSPG observed 22 June 2018  16:53 UTC
Temperature: 31.7°C (89°F)
Dewpoint: 23.3°C (74°F) [RH = 61%]
Pressure (altimeter): 29.98 inches Hg (1015.3 mb)
[Sea-level pressure: 1015.3 mb]
Winds: from the WNW (290 degrees) at 7 MPH (6 knots; 3.1 m/s)
Visibility: 10 or more miles (16+ km)
Ceiling: at least 12,000 feet AGL
Clouds: sky clear below 12,000 feet AGL
Present Weather: no significant weather observed at this time
KSPG 221653Z 29006KT 10SM CLR 32/23 A2998 RMK AO2 SLP153 T03170233

Conditions at: KSPG observed 22 June 2018  15:53 UTC
Temperature: 31.1°C (88°F)
Dewpoint: 23.3°C (74°F) [RH = 63%]
Pressure (altimeter): 29.98 inches Hg (1015.3 mb)
[Sea-level pressure: 1015.1 mb]
Winds: from the W (270 degrees) at 6 MPH (5 knots; 2.6 m/s)
Visibility: 10 or more miles (16+ km)
Ceiling: at least 12,000 feet AGL
Clouds: few clouds at 3400 feet AGL
few clouds at 6000 feet AGL
Present Weather: no significant weather observed at this time
KSPG 221553Z 27005KT 10SM FEW034 FEW060 31/23 A2998 RMK AO2 SLP151 T03110233

Conditions at: KSPG observed 22 June 2018  14:53 UTC
Temperature: 30.6°C (87°F)
Dewpoint: 24.4°C (76°F) [RH = 70%]
Pressure (altimeter): 29.98 inches Hg (1015.3 mb)
[Sea-level pressure: 1015.3 mb]
Winds: from the W (280 degrees) at 10 MPH (9 knots; 4.7 m/s)
gusting to 18 MPH (16 knots; 8.3 m/s)
Visibility: 10 or more miles (16+ km)
Ceiling: at least 12,000 feet AGL
Clouds: scattered clouds at 3000 feet AGL
scattered clouds at 4200 feet AGL
Present Weather: no significant weather observed at this time
KSPG 221453Z 28009G16KT 10SM SCT030 SCT042 31/24 A2998 RMK AO2 SLP153 T03060244 51005

Conditions at: KSPG observed 22 June 2018  13:53 UTC
Temperature: 30.0°C (86°F)
Dewpoint: 24.4°C (76°F) [RH = 72%]
Pressure (altimeter): 29.98 inches Hg (1015.3 mb)
[Sea-level pressure: 1015.2 mb]
Winds: from the WNW (290 degrees) at 8 MPH (7 knots; 3.6 m/s)
Visibility: 10 or more miles (16+ km)
Ceiling: at least 12,000 feet AGL
Clouds: few clouds at 2800 feet AGL
Present Weather: no significant weather observed at this time
KSPG 221353Z 29007KT 10SM FEW028 30/24 A2998 RMK AO2 LTG DSNT NE SLP152 T03000244

Conditions at: KSPG observed 22 June 2018  12:53 UTC
Temperature: 29.4°C (85°F)
Dewpoint: 25.0°C (77°F) [RH = 77%]
Pressure (altimeter): 29.98 inches Hg (1015.3 mb)
[Sea-level pressure: 1015.3 mb]
Winds: from the WNW (290 degrees) at 6 MPH (5 knots; 2.6 m/s)
Visibility: 10 or more miles (16+ km)
Ceiling: at least 12,000 feet AGL
Clouds: sky clear below 12,000 feet AGL
Present Weather: no significant weather observed at this time
KSPG 221253Z 29005KT 10SM CLR 29/25 A2998 RMK AO2 SLP153 T02940250

Conditions at: KSPG observed 22 June 2018  11:53 UTC
Temperature: 28.9°C (84°F)
Dewpoint: 24.4°C (76°F) [RH = 77%]
Pressure (altimeter): 29.97 inches Hg (1015.0 mb)
[Sea-level pressure: 1014.7 mb]
Winds: from the W (280 degrees) at 6 MPH (5 knots; 2.6 m/s)
Visibility: 10 or more miles (16+ km)
Ceiling: at least 12,000 feet AGL
Clouds: sky clear below 12,000 feet AGL
Present Weather: no significant weather observed at this time
KSPG 221153Z 28005KT 10SM CLR 29/24 A2997 RMK AO2 SLP147 70041 T02890244 10289 20283 53020

Conditions at: KSPG observed 22 June 2018  10:53 UTC
Temperature: 28.9°C (84°F)
Dewpoint: 24.4°C (76°F) [RH = 77%]
Pressure (altimeter): 29.94 inches Hg (1014.0 mb)
[Sea-level pressure: 1013.9 mb]
Winds: from the W (280 degrees) at 6 MPH (5 knots; 2.6 m/s)
Visibility: 10 or more miles (16+ km)
Ceiling: at least 12,000 feet AGL
Clouds: sky clear below 12,000 feet AGL
Present Weather: no significant weather observed at this time
KSPG 221053Z 28005KT 10SM CLR 29/24 A2994 RMK AO2 SLP139 T02890244

Conditions at: KSPG observed 22 June 2018  09:53 UTC
Temperature: 28.3°C (83°F)
Dewpoint: 24.4°C (76°F) [RH = 79%]
Pressure (altimeter): 29.93 inches Hg (1013.6 mb)
[Sea-level pressure: 1013.3 mb]
Winds: from the W (280 degrees) at 7 MPH (6 knots; 3.1 m/s)
Visibility: 10 or more miles (16+ km)
Ceiling: at least 12,000 feet AGL
Clouds: sky clear below 12,000 feet AGL
Present Weather: automated observation with no human augmentation;
there may or may not be significant weather present at this time
KSPG 220953Z AUTO 28006KT 10SM CLR 28/24 A2993 RMK AO2 SLP133 T02830244

Conditions at: KSPG observed 22 June 2018  08:53 UTC
Temperature: 28.9°C (84°F)
Dewpoint: 25.0°C (77°F) [RH = 80%]
Pressure (altimeter): 29.91 inches Hg (1013.0 mb)
[Sea-level pressure: 1012.7 mb]
Winds: from the W (270 degrees) at 6 MPH (5 knots; 2.6 m/s)
Visibility: 10 or more miles (16+ km)
Ceiling: at least 12,000 feet AGL
Clouds: sky clear below 12,000 feet AGL
Present Weather: automated observation with no human augmentation;
there may or may not be significant weather present at this time
KSPG 220853Z AUTO 27005KT 10SM CLR 29/25 A2991 RMK AO2 SLP127 T02890250 55006

Conditions at: KSPG observed 22 June 2018  07:53 UTC
Temperature: 28.9°C (84°F)
Dewpoint: 25.0°C (77°F) [RH = 80%]
Pressure (altimeter): 29.91 inches Hg (1013.0 mb)
[Sea-level pressure: 1012.7 mb]
Winds: from the W (270 degrees) at 6 MPH (5 knots; 2.6 m/s)
Visibility: 10 or more miles (16+ km)
Ceiling: at least 12,000 feet AGL
Clouds: few clouds at 2200 feet AGL
few clouds at 2800 feet AGL
scattered clouds at 4300 feet AGL
Present Weather: automated observation with no human augmentation;
there may or may not be significant weather present at this time
KSPG 220753Z AUTO 27005KT 10SM FEW022 FEW028 SCT043 29/25 A2991 RMK AO2 SLP127 T02890250

Conditions at: KSPG observed 22 June 2018  06:53 UTC
Temperature: 28.3°C (83°F)
Dewpoint: 25.6°C (78°F) [RH = 85%]
Pressure (altimeter): 29.91 inches Hg (1013.0 mb)
[Sea-level pressure: 1012.8 mb]
Winds: from the WSW (250 degrees) at 6 MPH (5 knots; 2.6 m/s)
Visibility: 10 or more miles (16+ km)
Ceiling: at least 12,000 feet AGL
Clouds: sky clear below 12,000 feet AGL
Present Weather: automated observation with no human augmentation;
there may or may not be significant weather present at this time
KSPG 220653Z AUTO 25005KT 10SM CLR 28/26 A2991 RMK AO2 SLP128 T02830256

Conditions at: KSPG observed 22 June 2018  05:53 UTC
Temperature: 28.9°C (84°F)
Dewpoint: 25.0°C (77°F) [RH = 80%]
Pressure (altimeter): 29.93 inches Hg (1013.6 mb)
[Sea-level pressure: 1013.4 mb]
Winds: from the W (270 degrees) at 5 MPH (4 knots; 2.1 m/s)
Visibility: 10 or more miles (16+ km)
Ceiling: at least 12,000 feet AGL
Clouds: sky clear below 12,000 feet AGL
Present Weather: automated observation with no human augmentation;
there may or may not be significant weather present at this time
KSPG 220553Z AUTO 27004KT 10SM CLR 29/25 A2993 RMK AO2 SLP134 T02890250 10300 20283 58010

Conditions at: KSPG observed 22 June 2018  04:53 UTC
Temperature: 28.9°C (84°F)
Dewpoint: 25.0°C (77°F) [RH = 80%]
Pressure (altimeter): 29.94 inches Hg (1014.0 mb)
[Sea-level pressure: 1013.9 mb]
Winds: from the W (260 degrees) at 6 MPH (5 knots; 2.6 m/s)
Visibility: 10 or more miles (16+ km)
Ceiling: at least 12,000 feet AGL
Clouds: sky clear below 12,000 feet AGL
Present Weather: automated observation with no human augmentation;
there may or may not be significant weather present at this time
KSPG 220453Z AUTO 26005KT 10SM CLR 29/25 A2994 RMK AO2 SLP139 T02890250 403110256

Conditions at: KSPG observed 22 June 2018  03:53 UTC
Temperature: 28.9°C (84°F)
Dewpoint: 25.0°C (77°F) [RH = 80%]
Pressure (altimeter): 29.96 inches Hg (1014.6 mb)
[Sea-level pressure: 1014.4 mb]
Winds: from the W (270 degrees) at 8 MPH (7 knots; 3.6 m/s)
Visibility: 10 or more miles (16+ km)
Ceiling: at least 12,000 feet AGL
Clouds: sky clear below 12,000 feet AGL
Present Weather: automated observation with no human augmentation;
there may or may not be significant weather present at this time
KSPG 220353Z AUTO 27007KT 10SM CLR 29/25 A2996 RMK AO2 SLP144 T02890250

Conditions at: KSPG observed 22 June 2018  02:53 UTC
Temperature: 29.4°C (85°F)
Dewpoint: 25.0°C (77°F) [RH = 77%]
Pressure (altimeter): 29.96 inches Hg (1014.6 mb)
[Sea-level pressure: 1014.4 mb]
Winds: from the NW (320 degrees) at 6 MPH (5 knots; 2.6 m/s)
Visibility: 10 or more miles (16+ km)
Ceiling: at least 12,000 feet AGL
Clouds: sky clear below 12,000 feet AGL
Present Weather: automated observation with no human augmentation;
there may or may not be significant weather present at this time
KSPG 220253Z AUTO 32005KT 10SM CLR 29/25 A2996 RMK AO2 SLP144 T02940250 51016

Conditions at: KSPG observed 22 June 2018  01:53 UTC
Temperature: 29.4°C (85°F)
Dewpoint: 25.0°C (77°F) [RH = 77%]
Pressure (altimeter): 29.95 inches Hg (1014.3 mb)
[Sea-level pressure: 1014.1 mb]
Winds: from the W (280 degrees) at 5 MPH (4 knots; 2.1 m/s)
Visibility: 10 or more miles (16+ km)
Ceiling: at least 12,000 feet AGL
Clouds: sky clear below 12,000 feet AGL
Present Weather: automated observation with no human augmentation;
there may or may not be significant weather present at this time
KSPG 220153Z AUTO 28004KT 10SM CLR 29/25 A2995 RMK AO2 SLP141 T02940250

Conditions at: KSPG observed 22 June 2018  00:53 UTC
Temperature: 29.4°C (85°F)
Dewpoint: 24.4°C (76°F) [RH = 75%]
Pressure (altimeter): 29.93 inches Hg (1013.6 mb)
[Sea-level pressure: 1013.5 mb]
Winds: from the W (280 degrees) at 7 MPH (6 knots; 3.1 m/s)
Visibility: 10 or more miles (16+ km)
Ceiling: at least 12,000 feet AGL
Clouds: sky clear below 12,000 feet AGL
Present Weather: automated observation with no human augmentation;
there may or may not be significant weather present at this time
KSPG 220053Z AUTO 28006KT 10SM CLR 29/24 A2993 RMK AO2 SLP135 T02940244

Conditions at: KSPG observed 21 June 2018  23:53 UTC
Temperature: 30.0°C (86°F)
Dewpoint: 24.4°C (76°F) [RH = 72%]
Pressure (altimeter): 29.91 inches Hg (1013.0 mb)
[Sea-level pressure: 1012.8 mb]
Winds: from the WNW (300 degrees) at 9 MPH (8 knots; 4.2 m/s)
Visibility: 10 or more miles (16+ km)
Ceiling: at least 12,000 feet AGL
Clouds: few clouds at 2800 feet AGL
Present Weather: no significant weather observed at this time
KSPG 212353Z 30008KT 10SM FEW028 30/24 A2991 RMK AO2 SLP128 T03000244 10311 20300 53002

Conditions at: KSPG observed 21 June 2018  22:53 UTC
Temperature: 30.6°C (87°F)
Dewpoint: 24.4°C (76°F) [RH = 70%]
Pressure (altimeter): 29.89 inches Hg (1012.3 mb)
[Sea-level pressure: 1012.3 mb]
Winds: from the W (280 degrees) at 9 MPH (8 knots; 4.2 m/s)
Visibility: 10 or more miles (16+ km)
Ceiling: 5500 feet AGL
Clouds: scattered clouds at 3000 feet AGL
scattered clouds at 3800 feet AGL
broken clouds at 5500 feet AGL
Present Weather: no significant weather observed at this time
KSPG 212253Z 28008KT 10SM SCT030 SCT038 BKN055 31/24 A2989 RMK AO2 SLP123 T03060244

Conditions at: KSPG observed 21 June 2018  22:39 UTC
Temperature: 30.6°C (87°F)
Dewpoint: 25.0°C (77°F) [RH = 72%]
Pressure (altimeter): 29.89 inches Hg (1012.3 mb)
Winds: from the W (280 degrees) at 6 MPH (5 knots; 2.6 m/s)
Visibility: 10 or more miles (16+ km)
Ceiling: 5500 feet AGL
Clouds: scattered clouds at 2900 feet AGL
scattered clouds at 4000 feet AGL
broken clouds at 5500 feet AGL
Present Weather: no significant weather observed at this time
KSPG 212239Z 28005KT 10SM SCT029 SCT040 BKN055 31/25 A2989 RMK AO2 T03060250

Conditions at: KSPG observed 21 June 2018  21:53 UTC
Temperature: 30.6°C (87°F)
Dewpoint: 25.0°C (77°F) [RH = 72%]
Pressure (altimeter): 29.91 inches Hg (1013.0 mb)
[Sea-level pressure: 1012.7 mb]
Winds: variable direction winds at 7 MPH (6 knots; 3.1 m/s)
Visibility: 10 or more miles (16+ km)
Ceiling: 2900 feet AGL
Clouds: broken clouds at 2900 feet AGL
broken clouds at 3900 feet AGL
Present Weather: no significant weather observed at this time
KSPG 212153Z VRB06KT 10SM BKN029 BKN039 31/25 A2991 RMK AO2 SLP127 T03060250

Conditions at: KSPG observed 21 June 2018  20:53 UTC
Temperature: 31.1°C (88°F)
Dewpoint: 24.4°C (76°F) [RH = 68%]
Pressure (altimeter): 29.91 inches Hg (1013.0 mb)
[Sea-level pressure: 1012.6 mb]
Winds: from the WNW (290 degrees) at 9 MPH (8 knots; 4.2 m/s)
Visibility: 10 or more miles (16+ km)
Ceiling: 4700 feet AGL
Clouds: scattered clouds at 3400 feet AGL
broken clouds at 4700 feet AGL
Present Weather: no significant weather observed at this time
KSPG 212053Z 29008KT 10SM SCT034 BKN047 31/24 A2991 RMK AO2 SLP126 T03110244 55008

Conditions at: KSPG observed 21 June 2018  19:53 UTC
Temperature: 31.1°C (88°F)
Dewpoint: 25.0°C (77°F) [RH = 70%]
Pressure (altimeter): 29.90 inches Hg (1012.6 mb)
[Sea-level pressure: 1012.5 mb]
Winds: from the N (360 degrees) at 9 MPH (8 knots; 4.2 m/s)
Visibility: 10 or more miles (16+ km)
Ceiling: 3700 feet AGL
Clouds: scattered clouds at 3000 feet AGL
broken clouds at 3700 feet AGL
Present Weather: no significant weather observed at this time
KSPG 211953Z 36008KT 10SM SCT030 BKN037 31/25 A2990 RMK AO2 SLP125 T03110250

Conditions at: KSPG observed 21 June 2018  18:53 UTC
Temperature: 31.1°C (88°F)
Dewpoint: 25.0°C (77°F) [RH = 70%]
Pressure (altimeter): 29.93 inches Hg (1013.6 mb)
[Sea-level pressure: 1013.3 mb]
Winds: from the NNW (340 degrees) at 9 MPH (8 knots; 4.2 m/s)
Visibility: 10 or more miles (16+ km)
Ceiling: 5000 feet AGL
Clouds: few clouds at 3200 feet AGL
scattered clouds at 4200 feet AGL
broken clouds at 5000 feet AGL
Present Weather: no significant weather observed at this time
KSPG 211853Z 34008KT 10SM FEW032 SCT042 BKN050 31/25 A2993 RMK AO2 SLP133 T03110250

Conditions at: KSPG observed 21 June 2018  17:53 UTC
Temperature: 30.6°C (87°F)
Dewpoint: 25.0°C (77°F) [RH = 72%]
Pressure (altimeter): 29.93 inches Hg (1013.6 mb)
[Sea-level pressure: 1013.5 mb]
Winds: from the W (280 degrees) at 8 MPH (7 knots; 3.6 m/s)
Visibility: 10 or more miles (16+ km)
Ceiling: at least 12,000 feet AGL
Clouds: few clouds at 2900 feet AGL
scattered clouds at 3800 feet AGL
Present Weather: no significant weather observed at this time
KSPG 211753Z 28007KT 10SM FEW029 SCT038 31/25 A2993 RMK AO2 SLP135 60041 T03060250 10311 20256 58008

Conditions at: KSPG observed 21 June 2018  16:53 UTC
Temperature: 31.1°C (88°F)
Dewpoint: 24.4°C (76°F) [RH = 68%]
Pressure (altimeter): 29.94 inches Hg (1014.0 mb)
[Sea-level pressure: 1013.9 mb]
Winds: from the NNW (330 degrees) at 6 MPH (5 knots; 2.6 m/s)
Visibility: 10 or more miles (16+ km)
Ceiling: at least 12,000 feet AGL
Clouds: few clouds at 2600 feet AGL
few clouds at 3300 feet AGL
Present Weather: no significant weather observed at this time
KSPG 211653Z 33005KT 10SM FEW026 FEW033 31/24 A2994 RMK AO2 SLP139 T03110244